Time;durP1;ratioP1;P1;durP2;ratioP2;P2;SDS_P1;SDS_P2;PMS_P1;PMS_P2;Temp;Humidity;BMP_temperature;BMP_pressure;BME280_temperature;BME280_humidity;BME280_pressure;Samples;Min_cycle;Max_cycle;Signal;HPM_P1;HPM_P2
2023/07/03 00:02:14;;;;;;;16.47;9.20;;;22.40;42.10;;;;;;5105946;27;20519;-87
2023/07/03 00:04:45;;;;;;;17.47;9.43;;;22.30;42.10;;;;;;5082415;27;20453;-86
2023/07/03 00:07:15;;;;;;;16.63;9.40;;;22.30;42.30;;;;;;5099963;27;20559;-86
2023/07/03 00:09:42;;;;;;;17.05;8.93;;;22.30;42.90;;;;;;5094029;27;20450;-86
2023/07/03 00:12:10;;;;;;;19.93;10.13;;;22.30;42.90;;;;;;5072283;27;20212;-85
2023/07/03 00:14:39;;;;;;;23.27;9.40;;;22.20;42.40;;;;;;5105484;27;20464;-87
2023/07/03 00:17:07;;;;;;;18.67;9.37;;;22.20;43.10;;;;;;5105762;27;20450;-87
2023/07/03 00:19:36;;;;;;;15.77;9.20;;;22.20;43.10;;;;;;5098147;27;20445;-87
2023/07/03 00:22:04;;;;;;;20.13;9.50;;;22.10;42.20;;;;;;5083686;27;20534;-86
2023/07/03 00:24:32;;;;;;;21.07;9.80;;;21.90;43.10;;;;;;5086623;27;20452;-85
2023/07/03 00:27:00;;;;;;;19.33;9.60;;;21.80;43.90;;;;;;5104793;27;20451;-85
2023/07/03 00:29:30;;;;;;;20.80;9.77;;;21.80;42.60;;;;;;5087904;27;20437;-86
2023/07/03 00:31:59;;;;;;;20.03;9.27;;;21.70;44.00;;;;;;5069871;27;20196;-85
2023/07/03 00:34:28;;;;;;;19.27;9.03;;;21.60;43.90;;;;;;5094454;27;20451;-86
2023/07/03 00:36:55;;;;;;;16.33;10.10;;;21.70;44.70;;;;;;5097766;27;20446;-86
2023/07/03 00:39:22;;;;;;;15.37;9.07;;;21.60;45.20;;;;;;5096638;27;20470;-87
2023/07/03 00:41:50;;;;;;;17.20;9.40;;;21.60;45.50;;;;;;5080114;27;20525;-86
2023/07/03 00:44:18;;;;;;;25.90;10.40;;;21.60;44.10;;;;;;5088030;27;20888;-85
2023/07/03 00:46:49;;;;;;;17.70;9.37;;;21.60;45.40;;;;;;5080013;27;20465;-87
2023/07/03 00:49:19;;;;;;;18.40;9.73;;;21.60;44.60;;;;;;5103928;27;20487;-85
2023/07/03 00:51:51;;;;;;;20.07;9.50;;;21.50;44.80;;;;;;5083601;27;20529;-85
2023/07/03 00:54:18;;;;;;;18.60;9.67;;;21.40;45.00;;;;;;5081439;27;20786;-86
2023/07/03 00:56:45;;;;;;;20.47;10.07;;;21.50;44.80;;;;;;5070548;27;20450;-85
2023/07/03 00:59:12;;;;;;;15.87;9.27;;;21.50;44.90;;;;;;5071056;27;20469;-85
2023/07/03 01:01:44;;;;;;;21.33;9.70;;;21.50;44.70;;;;;;5066199;27;20521;-86
2023/07/03 01:04:14;;;;;;;18.13;11.00;;;21.60;44.90;;;;;;5110444;27;20522;-85
2023/07/03 01:06:48;;;;;;;20.20;9.73;;;21.60;44.80;;;;;;5070517;27;20934;-86
2023/07/03 01:09:20;;;;;;;20.87;9.50;;;21.60;45.00;;;;;;5113708;27;20442;-87
2023/07/03 01:11:48;;;;;;;15.80;8.27;;;21.50;44.60;;;;;;5094771;27;20478;-86
2023/07/03 01:14:19;;;;;;;16.43;9.43;;;21.60;44.90;;;;;;5114303;27;20558;-87
2023/07/03 01:16:49;;;;;;;19.23;9.70;;;21.50;44.70;;;;;;5064302;27;20541;-87
2023/07/03 01:19:23;;;;;;;21.53;9.80;;;21.40;44.60;;;;;;5081163;27;20502;-86
2023/07/03 01:21:58;;;;;;;22.27;9.77;;;21.30;44.80;;;;;;5108513;27;20456;-86
2023/07/03 01:24:33;;;;;;;18.60;9.30;;;21.30;45.00;;;;;;5071671;27;20457;-85
2023/07/03 01:27:04;;;;;;;21.70;9.93;;;21.40;44.90;;;;;;5102842;27;20446;-88
2023/07/03 01:29:32;;;;;;;18.23;9.50;;;21.40;44.90;;;;;;5070536;27;20534;-86
2023/07/03 01:32:00;;;;;;;24.57;9.43;;;21.20;45.00;;;;;;5082684;27;20478;-86
2023/07/03 01:34:28;;;;;;;22.00;9.83;;;21.00;44.60;;;;;;5104656;27;20435;-87
2023/07/03 01:36:58;;;;;;;15.03;8.33;;;21.00;45.40;;;;;;5112347;27;20434;-86
2023/07/03 01:39:26;;;;;;;21.27;9.03;;;21.10;45.20;;;;;;5069666;27;20494;-86
2023/07/03 01:41:56;;;;;;;18.10;9.53;;;21.20;45.40;;;;;;5118868;27;21020;-85
2023/07/03 01:44:23;;;;;;;19.53;8.80;;;21.20;45.10;;;;;;5106933;27;20554;-87
2023/07/03 01:46:50;;;;;;;21.80;9.53;;;21.20;45.10;;;;;;5093499;27;20446;-84
2023/07/03 01:49:18;;;;;;;17.10;10.63;;;21.30;45.10;;;;;;5102576;27;20449;-88
2023/07/03 01:51:54;;;;;;;21.80;9.70;;;21.30;45.00;;;;;;5083744;27;20486;-85
2023/07/03 01:54:29;;;;;;;22.80;9.03;;;21.20;44.80;;;;;;5061301;27;20445;-85
2023/07/03 01:57:00;;;;;;;19.20;9.93;;;21.20;45.10;;;;;;5081035;27;20514;-86
2023/07/03 01:59:29;;;;;;;16.10;9.30;;;21.20;45.10;;;;;;5080011;27;20544;-86
2023/07/03 02:02:03;;;;;;;17.37;8.80;;;21.20;45.10;;;;;;5076336;27;20450;-85
2023/07/03 02:04:34;;;;;;;23.10;8.77;;;21.20;45.40;;;;;;5095013;27;20992;-86
2023/07/03 02:07:04;;;;;;;19.00;9.43;;;21.10;45.60;;;;;;5113474;27;20840;-87
2023/07/03 02:09:32;;;;;;;17.73;9.20;;;21.10;45.20;;;;;;5102699;27;20797;-88
2023/07/03 02:12:05;;;;;;;17.93;10.10;;;21.10;45.20;;;;;;5067858;27;20442;-87
2023/07/03 02:14:34;;;;;;;21.07;9.20;;;21.10;45.30;;;;;;5078798;28;20832;-86
2023/07/03 02:17:01;;;;;;;20.20;8.73;;;21.10;45.50;;;;;;5068633;27;20492;-85
2023/07/03 02:19:31;;;;;;;17.17;8.23;;;20.90;45.50;;;;;;5076409;27;20481;-87
2023/07/03 02:21:58;;;;;;;12.83;8.27;;;20.80;45.50;;;;;;5095448;27;20450;-85
2023/07/03 02:24:26;;;;;;;23.37;9.93;;;20.80;45.10;;;;;;5094669;27;21061;-85
2023/07/03 02:26:53;;;;;;;17.70;9.60;;;20.80;45.60;;;;;;5094540;27;22467;-86
2023/07/03 02:29:22;;;;;;;17.07;9.60;;;20.90;45.60;;;;;;5085729;27;20431;-86
2023/07/03 02:31:49;;;;;;;15.70;8.77;;;20.90;45.70;;;;;;5089561;27;20466;-86
2023/07/03 02:34:16;;;;;;;15.70;8.40;;;20.90;45.80;;;;;;5085904;27;20562;-87
2023/07/03 02:36:46;;;;;;;19.07;9.63;;;20.90;45.60;;;;;;5074129;27;20446;-86
2023/07/03 02:39:13;;;;;;;21.47;9.13;;;20.90;45.60;;;;;;5077227;27;21127;-85
2023/07/03 02:41:40;;;;;;;23.10;10.33;;;20.90;45.80;;;;;;5118970;27;20526;-86
2023/07/03 02:44:08;;;;;;;20.67;10.07;;;20.90;45.70;;;;;;5083322;27;20477;-86
2023/07/03 02:46:37;;;;;;;19.83;9.73;;;20.90;45.60;;;;;;5109518;27;20451;-86
2023/07/03 02:49:04;;;;;;;14.13;8.83;;;20.90;45.90;;;;;;5077620;27;20481;-86
2023/07/03 02:51:31;;;;;;;20.33;9.57;;;20.90;45.90;;;;;;5096363;27;21022;-85
2023/07/03 02:54:02;;;;;;;14.33;9.07;;;20.80;46.00;;;;;;5079028;27;20998;-85
2023/07/03 02:56:29;;;;;;;13.63;8.70;;;20.80;46.20;;;;;;5061957;27;20439;-86
2023/07/03 02:58:57;;;;;;;20.97;9.73;;;20.80;46.10;;;;;;5068995;27;21083;-87
2023/07/03 03:01:29;;;;;;;17.20;8.53;;;20.70;46.10;;;;;;5061065;27;20442;-86
2023/07/03 03:03:59;;;;;;;16.33;8.30;;;20.70;46.50;;;;;;5066654;27;20470;-87
2023/07/03 03:06:26;;;;;;;15.70;9.07;;;20.70;46.40;;;;;;5112877;27;20478;-86
2023/07/03 03:08:53;;;;;;;22.83;10.63;;;20.70;46.70;;;;;;5077784;27;20447;-85
2023/07/03 03:11:21;;;;;;;20.30;10.03;;;20.70;46.60;;;;;;5106256;27;20442;-84
2023/07/03 03:14:00;;;;;;;17.63;9.50;;;20.70;46.60;;;;;;5054079;27;20471;-86
2023/07/03 03:16:27;;;;;;;18.83;9.23;;;20.70;46.50;;;;;;5048660;28;20994;-86
2023/07/03 03:18:54;;;;;;;19.80;9.30;;;20.70;47.00;;;;;;5095305;28;20466;-87
2023/07/03 03:21:23;;;;;;;16.60;9.77;;;20.70;47.00;;;;;;5095365;28;20637;-88
2023/07/03 03:23:50;;;;;;;15.57;8.77;;;20.70;47.10;;;;;;5074935;28;20473;-85
2023/07/03 03:26:17;;;;;;;20.30;10.23;;;20.60;46.20;;;;;;5065800;28;20447;-86
2023/07/03 03:28:44;;;;;;;17.20;9.30;;;20.50;46.70;;;;;;5044943;28;20949;-86
2023/07/03 03:31:11;;;;;;;22.53;9.87;;;20.50;47.80;;;;;;5071829;28;20440;-85
2023/07/03 03:33:47;;;;;;;17.80;9.23;;;20.50;48.10;;;;;;5104704;27;20459;-87
2023/07/03 03:36:14;;;;;;;20.50;9.50;;;20.50;48.70;;;;;;5060645;28;20455;-85
2023/07/03 03:38:42;;;;;;;16.33;9.40;;;20.60;48.10;;;;;;5057263;28;20477;-86
2023/07/03 03:41:09;;;;;;;19.80;9.00;;;20.70;48.20;;;;;;5079508;28;20197;-85
2023/07/03 03:43:39;;;;;;;20.50;10.47;;;20.70;47.60;;;;;;5067745;28;21030;-86
2023/07/03 03:46:08;;;;;;;21.67;9.43;;;20.80;47.50;;;;;;5075449;28;20869;-87
2023/07/03 03:48:36;;;;;;;18.60;10.03;;;20.90;47.90;;;;;;5086151;28;20530;-87
2023/07/03 03:51:05;;;;;;;18.07;10.40;;;20.90;47.80;;;;;;5109008;27;20454;-86
2023/07/03 03:53:34;;;;;;;18.37;10.10;;;21.00;47.80;;;;;;5101001;28;20470;-87
2023/07/03 03:56:02;;;;;;;20.50;10.30;;;21.00;47.40;;;;;;5066321;27;20449;-86
2023/07/03 03:58:32;;;;;;;20.60;9.70;;;21.00;47.90;;;;;;5091553;28;20579;-84
2023/07/03 04:00:59;;;;;;;16.23;9.63;;;21.10;48.00;;;;;;5061411;27;20865;-87
2023/07/03 04:03:26;;;;;;;21.50;8.60;;;21.10;47.90;;;;;;5104385;28;20750;-87
2023/07/03 04:05:53;;;;;;;20.37;10.17;;;21.10;47.70;;;;;;5089846;27;20569;-86
2023/07/03 04:08:20;;;;;;;15.45;8.73;;;21.10;47.60;;;;;;5100048;28;20444;-86
2023/07/03 04:10:47;;;;;;;16.03;9.70;;;21.10;47.90;;;;;;5063668;27;20279;-85
2023/07/03 04:13:16;;;;;;;21.60;9.93;;;21.20;48.60;;;;;;5091298;27;21015;-85
2023/07/03 04:15:56;;;;;;;19.23;9.73;;;21.20;49.20;;;;;;5091051;27;20458;-84
2023/07/03 04:18:24;;;;;;;19.60;9.80;;;21.10;49.70;;;;;;5060849;28;20433;-84
2023/07/03 04:20:51;;;;;;;18.47;10.00;;;21.10;50.20;;;;;;5084350;27;20533;-85
2023/07/03 04:23:19;;;;;;;20.27;9.60;;;21.10;50.50;;;;;;5071595;28;20451;-84
2023/07/03 04:25:48;;;;;;;24.40;10.53;;;21.20;50.30;;;;;;5101804;27;20494;-85
2023/07/03 04:28:18;;;;;;;23.37;10.60;;;21.20;50.50;;;;;;5079846;28;21031;-85
2023/07/03 04:30:45;;;;;;;23.47;11.33;;;21.30;50.70;;;;;;5061462;27;20455;-85
2023/07/03 04:33:12;;;;;;;16.07;8.53;;;21.30;50.70;;;;;;5108208;27;21128;-85
2023/07/03 04:35:39;;;;;;;17.20;11.83;;;21.30;50.40;;;;;;5073875;27;20439;-85
2023/07/03 04:38:06;;;;;;;18.33;9.60;;;21.40;50.60;;;;;;5093842;27;20450;-84
2023/07/03 04:40:33;;;;;;;19.53;10.80;;;21.40;50.10;;;;;;5094272;27;20466;-86
2023/07/03 04:43:00;;;;;;;21.87;11.63;;;21.40;50.40;;;;;;5088446;27;20562;-85
2023/07/03 04:45:31;;;;;;;18.97;11.47;;;21.30;49.90;;;;;;5117349;27;20446;-85
2023/07/03 04:47:58;;;;;;;16.20;10.17;;;21.20;49.80;;;;;;5090439;27;20451;-85
2023/07/03 04:50:25;;;;;;;17.47;9.47;;;21.20;49.90;;;;;;5092405;27;20434;-85
2023/07/03 04:52:53;;;;;;;22.43;11.53;;;21.30;50.50;;;;;;5072518;27;20549;-84
2023/07/03 04:55:21;;;;;;;22.75;10.05;;;21.40;50.50;;;;;;5091948;27;20449;-84
2023/07/03 04:57:48;;;;;;;17.00;9.90;;;21.50;50.10;;;;;;5089809;27;20196;-85
2023/07/03 05:00:18;;;;;;;25.40;11.33;;;21.50;50.10;;;;;;5109275;27;20546;-84
2023/07/03 05:02:47;;;;;;;19.83;9.87;;;21.60;49.90;;;;;;5075346;27;20559;-84
2023/07/03 05:05:16;;;;;;;13.10;9.13;;;21.60;49.60;;;;;;5084975;27;20822;-85
2023/07/03 05:07:44;;;;;;;20.10;10.30;;;21.60;49.40;;;;;;5074345;27;20447;-85
2023/07/03 05:10:13;;;;;;;19.40;9.87;;;21.60;49.30;;;;;;5108036;27;20521;-85
2023/07/03 05:12:40;;;;;;;20.77;10.87;;;21.70;49.40;;;;;;5125286;27;20474;-85
2023/07/03 05:15:08;;;;;;;15.63;9.73;;;21.70;49.40;;;;;;5121674;27;20461;-84
2023/07/03 05:17:38;;;;;;;14.10;9.10;;;21.80;49.30;;;;;;5105288;27;20460;-84
2023/07/03 05:20:10;;;;;;;14.60;9.13;;;21.80;49.00;;;;;;5120876;27;21431;-85
2023/07/03 05:22:37;;;;;;;14.50;8.93;;;21.90;49.10;;;;;;5083793;27;20561;-85
2023/07/03 05:25:06;;;;;;;19.30;9.87;;;21.90;48.80;;;;;;5071630;27;20461;-85
2023/07/03 05:27:33;;;;;;;17.20;8.73;;;21.90;48.50;;;;;;5100090;27;20458;-84
2023/07/03 05:30:00;;;;;;;16.70;9.30;;;21.90;48.80;;;;;;5092753;27;20980;-85
2023/07/03 05:32:28;;;;;;;19.43;9.50;;;21.80;49.10;;;;;;5067341;27;20500;-85
2023/07/03 05:34:55;;;;;;;18.50;10.50;;;21.70;49.20;;;;;;5093810;27;20454;-85
2023/07/03 05:37:23;;;;;;;19.33;10.67;;;21.80;49.40;;;;;;5082997;27;20463;-85
2023/07/03 05:39:50;;;;;;;20.87;10.37;;;21.80;49.10;;;;;;5107269;27;20467;-85
2023/07/03 05:42:18;;;;;;;26.87;9.03;;;21.90;49.40;;;;;;5082043;27;20466;-84
2023/07/03 05:44:46;;;;;;;21.23;11.63;;;21.90;49.60;;;;;;5106801;27;20442;-85
2023/07/03 05:47:14;;;;;;;20.57;9.80;;;22.00;49.80;;;;;;5098800;27;20906;-85
2023/07/03 05:49:42;;;;;;;21.10;10.13;;;22.10;49.70;;;;;;5091248;27;21132;-85
2023/07/03 05:52:10;;;;;;;16.93;10.07;;;22.10;49.60;;;;;;5076621;27;20465;-85
2023/07/03 05:54:39;;;;;;;20.93;10.20;;;22.10;49.50;;;;;;5085003;27;20952;-85
2023/07/03 05:57:09;;;;;;;21.50;9.30;;;22.20;49.20;;;;;;5089762;27;20457;-85
2023/07/03 05:59:37;;;;;;;19.57;9.67;;;22.20;48.80;;;;;;5092794;27;20466;-85
2023/07/03 06:02:07;;;;;;;21.20;10.00;;;22.10;48.70;;;;;;5089598;27;20454;-85
2023/07/03 06:04:35;;;;;;;20.27;8.83;;;22.20;48.70;;;;;;5062988;27;20547;-85
2023/07/03 06:07:03;;;;;;;19.33;9.20;;;22.20;48.30;;;;;;5087418;27;20524;-85
2023/07/03 06:09:30;;;;;;;20.80;8.90;;;22.30;48.50;;;;;;5082807;27;21214;-85
2023/07/03 06:11:58;;;;;;;19.83;9.53;;;22.30;48.60;;;;;;5073297;27;20479;-86
2023/07/03 06:14:26;;;;;;;22.50;10.00;;;22.30;48.70;;;;;;5090284;27;21252;-86
2023/07/03 06:16:53;;;;;;;22.10;9.60;;;22.50;48.70;;;;;;5104577;27;20447;-85
2023/07/03 06:19:21;;;;;;;17.70;9.83;;;22.60;48.70;;;;;;5059633;27;20449;-84
2023/07/03 06:21:48;;;;;;;21.80;9.73;;;22.70;48.40;;;;;;5075428;27;20861;-84
2023/07/03 06:24:16;;;;;;;28.37;9.50;;;22.70;48.30;;;;;;5084918;27;20220;-84
2023/07/03 06:26:44;;;;;;;19.57;9.50;;;22.80;48.40;;;;;;5105555;27;20469;-84
2023/07/03 06:29:14;;;;;;;16.97;8.73;;;22.90;48.30;;;;;;5104979;27;20449;-84
2023/07/03 06:31:41;;;;;;;22.10;9.07;;;22.80;47.20;;;;;;5096346;27;20951;-84
2023/07/03 06:34:08;;;;;;;19.07;9.53;;;22.70;47.50;;;;;;5086853;27;21127;-86
2023/07/03 06:36:35;;;;;;;19.57;10.03;;;22.70;47.60;;;;;;5089827;27;20986;-85
2023/07/03 06:39:04;;;;;;;14.97;8.47;;;22.70;48.20;;;;;;5088202;27;20483;-85
2023/07/03 06:41:34;;;;;;;22.07;7.77;;;22.40;46.10;;;;;;5070844;28;20563;-84
2023/07/03 06:44:02;;;;;;;24.13;8.23;;;22.40;47.20;;;;;;5070006;27;20478;-84
2023/07/03 06:46:30;;;;;;;22.93;8.20;;;22.40;46.20;;;;;;5081660;27;20442;-84
2023/07/03 06:48:58;;;;;;;14.43;7.50;;;22.30;45.40;;;;;;5052544;27;20457;-85
2023/07/03 06:51:26;;;;;;;14.80;7.67;;;22.10;45.40;;;;;;5106341;27;20520;-85
2023/07/03 06:53:53;;;;;;;12.97;7.07;;;22.00;46.00;;;;;;5056677;27;20471;-85
2023/07/03 06:56:20;;;;;;;13.90;6.90;;;22.00;46.20;;;;;;5107606;27;20452;-84
2023/07/03 06:58:48;;;;;;;17.43;7.20;;;21.90;46.20;;;;;;5057342;27;20447;-85
2023/07/03 07:01:19;;;;;;;18.87;6.60;;;21.90;46.00;;;;;;5104365;27;21003;-84
2023/07/03 07:03:48;;;;;;;19.47;8.43;;;21.90;46.20;;;;;;5098402;27;20477;-84
2023/07/03 07:06:17;;;;;;;11.53;6.97;;;21.80;45.20;;;;;;5085198;27;20443;-85
2023/07/03 07:08:45;;;;;;;14.80;6.93;;;22.00;45.50;;;;;;5106781;27;20449;-85
2023/07/03 07:11:14;;;;;;;15.23;6.87;;;22.10;45.40;;;;;;5076790;27;20963;-85
2023/07/03 07:13:43;;;;;;;12.80;7.45;;;22.20;46.40;;;;;;5059471;27;20473;-84
2023/07/03 07:16:14;;;;;;;22.47;7.57;;;22.40;45.30;;;;;;5061478;27;20589;-85
2023/07/03 07:18:42;;;;;;;20.80;6.80;;;22.50;44.80;;;;;;5081215;27;21020;-84
2023/07/03 07:21:10;;;;;;;9.73;6.20;;;22.60;44.60;;;;;;5062739;27;21271;-84
2023/07/03 07:23:37;;;;;;;16.30;7.37;;;22.90;44.20;;;;;;5081930;27;20939;-84
2023/07/03 07:26:04;;;;;;;17.47;6.73;;;23.00;44.00;;;;;;5079677;27;20446;-85
2023/07/03 07:28:31;;;;;;;11.75;7.53;;;23.20;44.20;;;;;;5105423;27;20458;-84
2023/07/03 07:30:59;;;;;;;16.43;6.67;;;23.30;43.60;;;;;;5095279;27;20196;-84
2023/07/03 07:33:26;;;;;;;16.60;6.83;;;23.40;44.20;;;;;;5104907;27;20510;-85
2023/07/03 07:35:53;;;;;;;10.50;5.70;;;23.40;43.50;;;;;;5095032;28;20453;-84
2023/07/03 07:38:22;;;;;;;14.83;6.87;;;23.50;43.30;;;;;;5092319;27;20537;-84
2023/07/03 07:40:50;;;;;;;13.87;6.00;;;23.50;43.00;;;;;;5077439;28;20482;-84
2023/07/03 07:43:17;;;;;;;16.23;7.20;;;23.20;44.10;;;;;;5094339;27;20465;-85
2023/07/03 07:45:52;;;;;;;14.63;6.47;;;23.30;44.10;;;;;;5114763;27;20189;-84
2023/07/03 07:48:18;;;;;;;12.83;5.60;;;23.50;43.70;;;;;;5070709;27;20443;-84
2023/07/03 07:50:45;;;;;;;11.93;5.10;;;23.60;43.40;;;;;;5097774;28;20862;-84
2023/07/03 07:53:12;;;;;;;16.07;5.30;;;23.60;42.10;;;;;;5067789;27;20540;-86
2023/07/03 07:55:41;;;;;;;14.63;7.17;;;23.60;42.50;;;;;;5086906;28;20476;-84
2023/07/03 07:58:08;;;;;;;16.63;5.07;;;23.40;42.40;;;;;;5092703;27;20446;-85
2023/07/03 08:00:35;;;;;;;14.53;4.13;;;23.30;41.90;;;;;;5097349;28;20457;-84
2023/07/03 08:03:02;;;;;;;7.80;4.40;;;23.30;43.40;;;;;;5081644;27;20970;-85
2023/07/03 08:05:31;;;;;;;9.83;4.80;;;23.30;42.40;;;;;;5072952;28;20458;-84
2023/07/03 08:07:58;;;;;;;11.53;5.33;;;23.30;42.90;;;;;;5082380;27;20442;-85
2023/07/03 08:10:24;;;;;;;14.60;5.37;;;23.40;43.40;;;;;;5067707;27;20464;-86
2023/07/03 08:12:53;;;;;;;7.30;4.10;;;23.50;42.80;;;;;;5092716;27;20458;-85
2023/07/03 08:15:21;;;;;;;13.47;4.30;;;23.40;42.00;;;;;;5081086;27;20458;-85
2023/07/03 08:17:48;;;;;;;12.27;4.27;;;23.30;42.20;;;;;;5080058;27;20674;-84
2023/07/03 08:20:15;;;;;;;11.80;4.47;;;23.20;41.90;;;;;;5093187;27;20469;-85
2023/07/03 08:22:42;;;;;;;14.97;5.13;;;23.20;42.60;;;;;;5100471;27;21196;-85
2023/07/03 08:25:10;;;;;;;10.70;4.47;;;23.30;42.40;;;;;;5065594;27;20953;-86
2023/07/03 08:27:37;;;;;;;10.43;3.90;;;23.60;42.50;;;;;;5093593;27;20518;-85
2023/07/03 08:30:07;;;;;;;15.90;4.67;;;24.00;42.10;;;;;;5081478;27;20445;-85
2023/07/03 08:32:34;;;;;;;14.00;4.67;;;24.30;40.00;;;;;;5091550;27;20466;-84
2023/07/03 08:35:02;;;;;;;10.73;3.97;;;24.30;39.80;;;;;;5062945;27;20465;-85
2023/07/03 08:37:29;;;;;;;6.13;3.73;;;24.30;39.50;;;;;;5067526;27;20490;-84
2023/07/03 08:39:56;;;;;;;10.00;4.40;;;24.10;39.00;;;;;;5075030;27;20446;-86
2023/07/03 08:42:27;;;;;;;6.40;3.67;;;24.20;39.20;;;;;;5091390;27;20489;-85
2023/07/03 08:44:57;;;;;;;7.43;3.30;;;24.20;38.40;;;;;;5109585;27;20458;-87
2023/07/03 08:47:30;;;;;;;5.00;2.90;;;24.00;37.40;;;;;;5077718;27;20910;-87
2023/07/03 08:49:58;;;;;;;9.83;2.33;;;23.70;37.90;;;;;;5073500;27;20831;-85
2023/07/03 08:52:31;;;;;;;4.73;2.27;;;23.70;38.20;;;;;;5083861;27;20477;-87
2023/07/03 08:54:59;;;;;;;5.57;2.57;;;23.50;37.50;;;;;;5124915;27;20454;-86
2023/07/03 08:57:27;;;;;;;16.57;3.80;;;23.30;37.50;;;;;;5064275;27;20453;-87
2023/07/03 08:59:54;;;;;;;6.37;2.50;;;23.30;38.30;;;;;;5105317;27;20457;-87
2023/07/03 09:02:31;;;;;;;11.00;2.53;;;23.70;39.10;;;;;;5064321;27;21811;-85
2023/07/03 09:05:18;;;;;;;6.10;2.37;;;23.80;36.90;;;;;;5071901;27;20460;-86
2023/07/03 09:07:49;;;;;;;6.23;2.43;;;23.50;37.20;;;;;;5098817;27;20822;-84
2023/07/03 09:10:22;;;;;;;10.23;2.93;;;23.70;38.60;;;;;;5099934;27;20545;-86
2023/07/03 09:12:53;;;;;;;4.00;2.50;;;23.90;37.70;;;;;;5091652;27;20506;-85
2023/07/03 09:15:27;;;;;;;9.43;2.47;;;23.90;36.80;;;;;;5108466;27;20535;-85
2023/07/03 09:17:59;;;;;;;9.40;2.30;;;24.20;37.60;;;;;;5075690;27;20481;-85
2023/07/03 09:20:30;;;;;;;3.97;2.33;;;24.40;36.70;;;;;;5090177;27;20467;-84
2023/07/03 09:23:03;;;;;;;4.17;2.67;;;24.20;35.90;;;;;;5082043;27;20466;-85
2023/07/03 09:25:35;;;;;;;11.83;2.67;;;24.10;36.00;;;;;;5100232;27;20458;-87
2023/07/03 09:28:03;;;;;;;9.17;2.47;;;24.10;36.20;;;;;;5091852;27;20458;-85
2023/07/03 09:30:30;;;;;;;5.93;2.23;;;24.40;35.90;;;;;;5101090;27;20474;-84
2023/07/03 09:32:59;;;;;;;4.70;1.80;;;24.70;35.40;;;;;;5060690;27;20549;-85
2023/07/03 09:35:35;;;;;;;8.30;2.67;;;24.90;34.50;;;;;;5082677;27;20443;-85
2023/07/03 09:38:09;;;;;;;8.67;3.60;;;24.90;34.80;;;;;;5075943;27;20454;-85
2023/07/03 09:40:38;;;;;;;4.40;2.43;;;24.90;33.40;;;;;;5089096;27;20475;-85
2023/07/03 09:43:13;;;;;;;10.77;2.97;;;24.40;33.80;;;;;;5086816;27;20462;-86
2023/07/03 09:45:40;;;;;;;4.60;2.50;;;24.30;33.30;;;;;;5124888;27;20549;-85
2023/07/03 09:48:18;;;;;;;10.20;2.70;;;24.10;34.90;;;;;;5087458;27;21018;-85
2023/07/03 09:50:45;;;;;;;12.57;3.33;;;24.30;33.90;;;;;;5073379;28;20438;-86
2023/07/03 09:53:17;;;;;;;3.73;2.40;;;24.20;34.20;;;;;;5107982;27;21216;-86
2023/07/03 09:55:45;;;;;;;4.63;1.87;;;24.10;34.90;;;;;;5090892;27;20454;-84
2023/07/03 09:58:15;;;;;;;8.70;2.80;;;24.00;33.90;;;;;;5103426;27;20455;-86
2023/07/03 10:00:47;;;;;;;3.63;2.10;;;24.00;35.90;;;;;;5067441;27;20454;-84
2023/07/03 10:03:24;;;;;;;8.37;2.73;;;24.50;36.40;;;;;;5090409;27;21001;-86
2023/07/03 10:05:51;;;;;;;5.32;2.10;;;24.80;34.40;;;;;;5072285;28;20980;-84
2023/07/03 10:08:21;;;;;;;5.90;2.00;;;24.70;34.00;;;;;;5058362;27;20935;-84
2023/07/03 10:10:49;;;;;;;4.67;2.30;;;24.90;35.10;;;;;;5077199;28;20863;-85
2023/07/03 10:13:24;;;;;;;6.40;2.37;;;24.90;33.90;;;;;;5090602;27;20469;-84
2023/07/03 10:15:54;;;;;;;4.47;2.22;;;24.90;34.50;;;;;;5060111;27;21233;-84
2023/07/03 10:18:27;;;;;;;7.47;2.87;;;24.80;34.60;;;;;;5113339;27;20741;-85
2023/07/03 10:20:55;;;;;;;4.93;1.90;;;24.80;35.10;;;;;;5076851;27;20995;-85
2023/07/03 10:23:26;;;;;;;4.60;2.20;;;25.00;34.30;;;;;;5061663;27;21016;-87
2023/07/03 10:25:56;;;;;;;4.37;2.13;;;25.10;34.20;;;;;;5084973;27;20538;-85
2023/07/03 10:28:28;;;;;;;4.97;2.30;;;25.10;34.40;;;;;;5110255;27;20462;-86
2023/07/03 10:31:00;;;;;;;6.47;2.23;;;25.50;34.60;;;;;;5057952;27;20446;-87
2023/07/03 10:33:32;;;;;;;7.23;2.50;;;25.50;33.90;;;;;;5112480;27;20500;-86
2023/07/03 10:36:03;;;;;;;3.47;2.47;;;25.50;34.50;;;;;;5076211;27;20739;-85
2023/07/03 10:38:38;;;;;;;8.23;5.43;;;25.60;34.60;;;;;;5073978;27;20453;-84
2023/07/03 10:41:12;;;;;;;5.45;2.50;;;25.50;34.00;;;;;;5091239;27;20480;-84
2023/07/03 10:43:44;;;;;;;5.70;2.80;;;25.50;34.50;;;;;;5075899;27;20237;-84
2023/07/03 10:46:21;;;;;;;6.90;2.40;;;25.80;34.90;;;;;;5078486;27;20453;-85
2023/07/03 10:48:51;;;;;;;15.83;2.73;;;25.60;35.00;;;;;;5080435;27;20474;-86
2023/07/03 10:51:23;;;;;;;3.57;2.00;;;25.70;34.50;;;;;;5080336;27;20450;-86
2023/07/03 10:53:54;;;;;;;7.03;3.10;;;25.70;34.40;;;;;;5077135;27;20963;-84
2023/07/03 10:56:26;;;;;;;7.20;3.00;;;25.60;34.60;;;;;;5095624;27;20966;-85
2023/07/03 10:59:02;;;;;;;5.47;2.10;;;25.40;35.50;;;;;;5090275;27;20444;-85
2023/07/03 11:01:39;;;;;;;9.73;2.67;;;25.60;34.80;;;;;;5126674;27;20476;-86
2023/07/03 11:04:18;;;;;;;4.30;2.03;;;25.90;34.90;;;;;;5075440;27;20504;-85
2023/07/03 11:06:53;;;;;;;8.20;2.97;;;26.00;35.30;;;;;;5067769;27;20833;-84
2023/07/03 11:09:33;;;;;;;4.10;2.23;;;26.20;34.30;;;;;;5074539;27;20484;-84
2023/07/03 11:12:06;;;;;;;7.45;2.28;;;26.30;34.70;;;;;;5088363;28;20446;-85
2023/07/03 11:14:40;;;;;;;5.20;2.67;;;25.90;34.00;;;;;;5075961;27;20850;-85
2023/07/03 11:17:12;;;;;;;3.93;2.20;;;25.80;34.60;;;;;;5088492;27;20446;-84
2023/07/03 11:19:50;;;;;;;6.27;2.60;;;25.70;34.70;;;;;;5089007;27;21188;-85
2023/07/03 11:22:24;;;;;;;4.80;2.23;;;25.90;35.00;;;;;;5075321;27;20469;-85
2023/07/03 11:25:05;;;;;;;4.13;2.23;;;26.10;34.70;;;;;;5091192;28;20457;-84
2023/07/03 11:27:38;;;;;;;9.13;2.60;;;26.10;33.50;;;;;;5070903;27;20737;-84
2023/07/03 11:30:08;;;;;;;6.07;2.23;;;26.00;34.40;;;;;;5120461;27;20446;-85
2023/07/03 11:32:36;;;;;;;4.27;2.37;;;26.20;34.80;;;;;;5073539;27;20458;-83
2023/07/03 11:35:08;;;;;;;5.33;2.30;;;26.40;34.40;;;;;;5075352;28;20438;-83
2023/07/03 11:37:46;;;;;;;5.00;2.43;;;26.50;33.30;;;;;;5121637;27;20465;-84
2023/07/03 11:40:38;;;;;;;2.63;1.87;;;26.80;33.10;;;;;;5059709;27;20911;-85
2023/07/03 11:43:32;;;;;;;5.27;3.33;;;26.80;34.10;;;;;;5071569;27;21018;-85
2023/07/03 11:46:06;;;;;;;2.83;2.20;;;26.30;33.20;;;;;;5078542;27;20848;-85
2023/07/03 11:48:41;;;;;;;6.10;2.80;;;26.40;33.20;;;;;;5079152;27;20449;-85
2023/07/03 11:51:12;;;;;;;8.43;2.83;;;26.50;33.70;;;;;;5119256;27;20793;-84
2023/07/03 11:53:43;;;;;;;2.53;1.93;;;26.40;32.30;;;;;;5097817;27;20855;-85
2023/07/03 11:56:15;;;;;;;5.45;2.25;;;26.60;32.50;;;;;;5078563;27;20446;-83
2023/07/03 11:58:43;;;;;;;7.37;2.37;;;26.80;31.70;;;;;;5066081;27;20200;-84
2023/07/03 12:01:29;;;;;;;6.60;2.60;;;26.70;31.90;;;;;;5086532;27;20451;-84
2023/07/03 12:03:58;;;;;;;5.25;2.33;;;26.90;32.20;;;;;;5112566;27;20534;-84
2023/07/03 12:06:47;;;;;;;7.60;2.47;;;27.10;31.60;;;;;;5095369;27;20200;-85
2023/07/03 12:09:30;;;;;;;3.97;1.73;;;27.40;30.60;;;;;;5092530;27;20959;-84
2023/07/03 12:12:19;;;;;;;3.93;2.10;;;27.50;31.10;;;;;;5069915;27;20955;-84
2023/07/03 12:14:54;;;;;;;7.90;2.53;;;27.40;30.60;;;;;;5097126;27;20458;-84
2023/07/03 12:17:23;;;;;;;7.70;3.00;;;27.30;31.30;;;;;;5110050;27;21219;-85
2023/07/03 12:19:55;;;;;;;3.33;2.63;;;27.20;31.70;;;;;;5113154;27;20446;-85
2023/07/03 12:22:26;;;;;;;7.40;3.00;;;27.40;32.00;;;;;;5096706;27;20473;-85
2023/07/03 12:25:12;;;;;;;3.87;2.53;;;27.20;32.40;;;;;;5088275;27;20539;-84
2023/07/03 12:27:40;;;;;;;4.40;3.00;;;26.80;32.20;;;;;;5104068;27;20461;-84
2023/07/03 12:30:11;;;;;;;3.63;2.23;;;26.40;32.60;;;;;;5110830;27;20452;-84
2023/07/03 12:32:38;;;;;;;6.57;2.40;;;26.20;32.50;;;;;;5084402;27;20561;-85
2023/07/03 12:35:14;;;;;;;5.10;2.43;;;26.00;32.70;;;;;;5075756;27;20451;-84
2023/07/03 12:37:47;;;;;;;5.57;2.53;;;26.00;33.20;;;;;;5118388;27;20537;-84
2023/07/03 12:40:17;;;;;;;4.60;2.50;;;26.00;33.20;;;;;;5112610;27;20473;-83
2023/07/03 12:42:46;;;;;;;6.13;2.17;;;26.40;34.00;;;;;;5087333;27;20470;-84
2023/07/03 12:45:16;;;;;;;4.83;2.60;;;26.80;33.20;;;;;;5088142;27;20437;-82
2023/07/03 12:47:44;;;;;;;4.07;2.60;;;27.00;33.90;;;;;;5112680;27;20473;-83
2023/07/03 12:50:18;;;;;;;6.00;2.77;;;27.20;32.20;;;;;;5076434;27;20458;-84
2023/07/03 12:52:56;;;;;;;5.23;2.57;;;27.30;32.40;;;;;;5085022;27;21118;-84